This is the latest recevied weather packets stored in our database for station/object EPGD. If no packets are shown the sender has not sent any weather packets the latest 1 day(s).
| Time | Temp. | Humidity | Pressure | Rain* | Wind** | Luminosity | Snow |
|---|---|---|---|---|---|---|---|
| 1777961104 | 10.56° C | 76% | 1011 hPa | - | 1.34 m/s, 310° | - | - |
| 1777959304 | 10° C | 76% | 1011 hPa | - | 1.34 m/s, 290° | - | - |
| 1777957503 | 8.89° C | 81% | 1011 hPa | - | 1.34 m/s, 250° | - | - |
| 1777955703 | 6.67° C | 93% | 1011 hPa | - | 2.24 m/s, 280° | - | - |
| 1777953904 | 5.56° C | 100% | 1011 hPa | - | 1.34 m/s, 270° | - | - |
| 1777952103 | 6.67° C | 93% | 1011 hPa | - | 2.24 m/s, 280° | - | - |
| 1777950304 | 6.67° C | 93% | 1011 hPa | - | 2.24 m/s, 280° | - | - |
| 1777948503 | 6.67° C | 93% | 1011 hPa | - | 2.24 m/s, 260° | - | - |
| 1777946704 | 7.78° C | 87% | 1011 hPa | - | 2.24 m/s, 260° | - | - |
| 1777944903 | 7.78° C | 87% | 1011 hPa | - | 1.34 m/s, 270° | - | - |
| 1777943104 | 7.78° C | 93% | 1011 hPa | - | 1.34 m/s, 240° | - | - |
| 1777941303 | 8.89° C | 87% | 1011 hPa | - | 1.34 m/s, 220° | - | - |
| 1777939504 | 8.89° C | 87% | 1011 hPa | - | 1.34 m/s, 230° | - | - |
| 1777937704 | 10° C | 87% | 1011 hPa | - | 0 m/s | - | - |
| 1777935904 | 10° C | 87% | 1012 hPa | - | 1.34 m/s, 250° | - | - |
| 1777934104 | 10° C | 87% | 1012 hPa | - | 1.34 m/s, 270° | - | - |
| 1777932304 | 10° C | 87% | 1012 hPa | - | 1.34 m/s, 270° | - | - |
| 1777930503 | 10.56° C | 87% | 1012 hPa | - | 3.58 m/s, 260° | - | - |
| 1777928704 | 10.56° C | 87% | 1012 hPa | - | 3.13 m/s, 260° | - | - |
| 1777926904 | 11.67° C | 81% | 1012 hPa | - | 4.47 m/s, 280° | - | - |
| 1777925104 | 11.67° C | 76% | 1012 hPa | - | 3.58 m/s, 270° | - | - |
| 1777923304 | 12.78° C | 71% | 1012 hPa | - | 3.58 m/s, 270° | - | - |
| 1777921503 | 13.89° C | 67% | 1012 hPa | - | 3.58 m/s, 260° | - | - |
| 1777919703 | 15° C | 62% | 1011 hPa | - | 4.02 m/s, 270° | - | - |
* Rain since midnight (hover to see other rain measurements)
** Current wind speed in m/s (hover to see current wind gust speed)